sensor_id;sensor_type;location;lat;lon;timestamp;P1;durP1;ratioP1;P2;durP2;ratioP2
76856;SDS011;66179;44.686;37.628;2023-01-28T00:00:11;13.65;;;5.30;;
76856;SDS011;66179;44.686;37.628;2023-01-28T00:02:38;11.67;;;3.80;;
76856;SDS011;66179;44.686;37.628;2023-01-28T00:05:04;11.80;;;3.72;;
76856;SDS011;66179;44.686;37.628;2023-01-28T00:07:31;9.57;;;3.78;;
76856;SDS011;66179;44.686;37.628;2023-01-28T00:09:58;32.70;;;10.65;;
76856;SDS011;66179;44.686;37.628;2023-01-28T00:12:24;30.67;;;10.75;;
76856;SDS011;66179;44.686;37.628;2023-01-28T00:14:51;39.83;;;13.03;;
76856;SDS011;66179;44.686;37.628;2023-01-28T00:17:18;11.85;;;4.25;;
76856;SDS011;66179;44.686;37.628;2023-01-28T00:19:45;11.38;;;4.28;;
76856;SDS011;66179;44.686;37.628;2023-01-28T00:22:11;19.55;;;7.07;;
76856;SDS011;66179;44.686;37.628;2023-01-28T00:24:38;11.93;;;4.38;;
76856;SDS011;66179;44.686;37.628;2023-01-28T00:27:04;10.47;;;4.37;;
76856;SDS011;66179;44.686;37.628;2023-01-28T00:29:31;11.15;;;4.88;;
76856;SDS011;66179;44.686;37.628;2023-01-28T00:31:57;35.72;;;14.07;;
76856;SDS011;66179;44.686;37.628;2023-01-28T00:34:27;12.32;;;4.43;;
76856;SDS011;66179;44.686;37.628;2023-01-28T00:36:54;9.82;;;3.90;;
76856;SDS011;66179;44.686;37.628;2023-01-28T00:39:24;8.90;;;3.37;;
76856;SDS011;66179;44.686;37.628;2023-01-28T00:41:51;8.57;;;3.28;;
76856;SDS011;66179;44.686;37.628;2023-01-28T00:44:18;10.50;;;3.42;;
76856;SDS011;66179;44.686;37.628;2023-01-28T00:46:46;11.57;;;4.55;;
76856;SDS011;66179;44.686;37.628;2023-01-28T00:49:12;10.35;;;3.55;;
76856;SDS011;66179;44.686;37.628;2023-01-28T00:51:40;12.63;;;4.80;;
76856;SDS011;66179;44.686;37.628;2023-01-28T00:54:07;8.82;;;3.25;;
76856;SDS011;66179;44.686;37.628;2023-01-28T00:56:35;12.80;;;3.28;;
76856;SDS011;66179;44.686;37.628;2023-01-28T00:59:02;7.07;;;2.85;;
76856;SDS011;66179;44.686;37.628;2023-01-28T01:01:28;8.88;;;3.20;;
76856;SDS011;66179;44.686;37.628;2023-01-28T01:03:55;9.97;;;3.73;;
76856;SDS011;66179;44.686;37.628;2023-01-28T01:06:30;7.85;;;3.10;;
76856;SDS011;66179;44.686;37.628;2023-01-28T01:09:01;8.95;;;3.40;;
76856;SDS011;66179;44.686;37.628;2023-01-28T01:11:32;9.10;;;3.35;;
76856;SDS011;66179;44.686;37.628;2023-01-28T01:14:00;8.88;;;3.38;;
76856;SDS011;66179;44.686;37.628;2023-01-28T01:16:29;9.63;;;3.40;;
76856;SDS011;66179;44.686;37.628;2023-01-28T01:19:01;10.85;;;3.88;;
76856;SDS011;66179;44.686;37.628;2023-01-28T01:24:21;10.18;;;3.80;;
76856;SDS011;66179;44.686;37.628;2023-01-28T01:26:50;9.38;;;3.60;;
76856;SDS011;66179;44.686;37.628;2023-01-28T01:29:16;9.77;;;3.50;;
76856;SDS011;66179;44.686;37.628;2023-01-28T01:31:43;11.30;;;3.78;;
76856;SDS011;66179;44.686;37.628;2023-01-28T01:34:10;8.93;;;3.90;;
76856;SDS011;66179;44.686;37.628;2023-01-28T01:36:36;9.43;;;3.60;;
76856;SDS011;66179;44.686;37.628;2023-01-28T01:39:03;9.52;;;3.85;;
76856;SDS011;66179;44.686;37.628;2023-01-28T01:41:30;8.93;;;3.50;;
76856;SDS011;66179;44.686;37.628;2023-01-28T01:44:02;7.85;;;3.47;;
76856;SDS011;66179;44.686;37.628;2023-01-28T01:46:38;9.15;;;3.80;;
76856;SDS011;66179;44.686;37.628;2023-01-28T01:49:21;10.70;;;3.75;;
76856;SDS011;66179;44.686;37.628;2023-01-28T01:51:50;9.63;;;3.67;;
76856;SDS011;66179;44.686;37.628;2023-01-28T01:54:22;9.50;;;3.87;;
76856;SDS011;66179;44.686;37.628;2023-01-28T01:56:52;9.52;;;4.32;;
76856;SDS011;66179;44.686;37.628;2023-01-28T01:59:20;8.88;;;3.88;;
76856;SDS011;66179;44.686;37.628;2023-01-28T02:01:49;10.00;;;3.92;;
76856;SDS011;66179;44.686;37.628;2023-01-28T02:04:28;8.98;;;4.20;;
76856;SDS011;66179;44.686;37.628;2023-01-28T02:06:57;10.20;;;4.27;;
76856;SDS011;66179;44.686;37.628;2023-01-28T02:09:27;11.25;;;4.47;;
76856;SDS011;66179;44.686;37.628;2023-01-28T02:11:57;11.98;;;5.43;;
76856;SDS011;66179;44.686;37.628;2023-01-28T02:14:28;11.00;;;5.07;;
76856;SDS011;66179;44.686;37.628;2023-01-28T02:16:59;10.73;;;4.57;;
76856;SDS011;66179;44.686;37.628;2023-01-28T02:19:30;11.33;;;4.80;;
76856;SDS011;66179;44.686;37.628;2023-01-28T02:27:56;10.80;;;4.50;;
76856;SDS011;66179;44.686;37.628;2023-01-28T02:30:26;11.52;;;4.22;;
76856;SDS011;66179;44.686;37.628;2023-01-28T02:32:58;9.37;;;4.00;;
76856;SDS011;66179;44.686;37.628;2023-01-28T02:35:40;10.32;;;3.78;;
76856;SDS011;66179;44.686;37.628;2023-01-28T02:38:10;9.80;;;4.05;;
76856;SDS011;66179;44.686;37.628;2023-01-28T02:40:42;11.13;;;4.72;;
76856;SDS011;66179;44.686;37.628;2023-01-28T02:43:31;9.30;;;3.83;;
76856;SDS011;66179;44.686;37.628;2023-01-28T02:46:39;9.10;;;3.70;;
76856;SDS011;66179;44.686;37.628;2023-01-28T02:49:33;7.72;;;3.15;;
76856;SDS011;66179;44.686;37.628;2023-01-28T02:52:08;9.07;;;3.35;;
76856;SDS011;66179;44.686;37.628;2023-01-28T02:54:41;8.90;;;3.10;;
76856;SDS011;66179;44.686;37.628;2023-01-28T02:57:19;8.02;;;3.05;;
76856;SDS011;66179;44.686;37.628;2023-01-28T02:59:56;8.53;;;3.27;;
76856;SDS011;66179;44.686;37.628;2023-01-28T03:02:33;7.57;;;3.22;;
76856;SDS011;66179;44.686;37.628;2023-01-28T03:07:55;6.90;;;2.85;;
76856;SDS011;66179;44.686;37.628;2023-01-28T03:10:23;8.70;;;3.20;;
76856;SDS011;66179;44.686;37.628;2023-01-28T03:12:53;9.10;;;3.07;;
76856;SDS011;66179;44.686;37.628;2023-01-28T03:15:41;8.07;;;2.97;;
76856;SDS011;66179;44.686;37.628;2023-01-28T03:18:31;8.30;;;3.17;;
76856;SDS011;66179;44.686;37.628;2023-01-28T03:21:26;9.05;;;3.08;;
76856;SDS011;66179;44.686;37.628;2023-01-28T03:24:23;9.90;;;3.10;;
76856;SDS011;66179;44.686;37.628;2023-01-28T03:30:29;7.18;;;2.97;;
76856;SDS011;66179;44.686;37.628;2023-01-28T03:33:43;7.60;;;3.13;;
76856;SDS011;66179;44.686;37.628;2023-01-28T03:36:29;8.68;;;3.03;;
76856;SDS011;66179;44.686;37.628;2023-01-28T03:39:30;9.55;;;3.10;;
76856;SDS011;66179;44.686;37.628;2023-01-28T03:41:58;8.93;;;3.07;;
76856;SDS011;66179;44.686;37.628;2023-01-28T03:44:27;8.20;;;3.10;;
76856;SDS011;66179;44.686;37.628;2023-01-28T03:47:12;10.88;;;3.30;;
76856;SDS011;66179;44.686;37.628;2023-01-28T03:49:43;10.40;;;3.25;;
76856;SDS011;66179;44.686;37.628;2023-01-28T03:52:17;9.63;;;3.78;;
76856;SDS011;66179;44.686;37.628;2023-01-28T03:54:48;10.73;;;3.70;;
76856;SDS011;66179;44.686;37.628;2023-01-28T03:57:15;10.05;;;4.00;;
76856;SDS011;66179;44.686;37.628;2023-01-28T03:59:43;9.18;;;3.65;;
76856;SDS011;66179;44.686;37.628;2023-01-28T04:02:11;8.57;;;2.97;;
76856;SDS011;66179;44.686;37.628;2023-01-28T04:04:38;9.35;;;2.95;;
76856;SDS011;66179;44.686;37.628;2023-01-28T04:07:05;7.50;;;2.90;;
76856;SDS011;66179;44.686;37.628;2023-01-28T04:09:52;9.55;;;3.13;;
76856;SDS011;66179;44.686;37.628;2023-01-28T04:12:33;7.72;;;3.33;;
76856;SDS011;66179;44.686;37.628;2023-01-28T04:15:00;8.77;;;3.25;;
76856;SDS011;66179;44.686;37.628;2023-01-28T04:17:29;7.65;;;3.10;;
76856;SDS011;66179;44.686;37.628;2023-01-28T04:19:56;8.10;;;3.10;;
76856;SDS011;66179;44.686;37.628;2023-01-28T04:22:24;9.32;;;3.13;;
76856;SDS011;66179;44.686;37.628;2023-01-28T04:24:50;9.15;;;3.10;;
76856;SDS011;66179;44.686;37.628;2023-01-28T04:27:17;9.13;;;3.03;;
76856;SDS011;66179;44.686;37.628;2023-01-28T04:29:45;9.40;;;3.08;;
76856;SDS011;66179;44.686;37.628;2023-01-28T04:32:37;9.53;;;3.07;;
76856;SDS011;66179;44.686;37.628;2023-01-28T04:35:19;8.68;;;2.80;;
76856;SDS011;66179;44.686;37.628;2023-01-28T04:38:08;7.60;;;2.58;;
76856;SDS011;66179;44.686;37.628;2023-01-28T04:40:44;10.07;;;2.85;;
76856;SDS011;66179;44.686;37.628;2023-01-28T04:43:23;10.93;;;3.08;;
76856;SDS011;66179;44.686;37.628;2023-01-28T04:45:54;8.10;;;3.70;;
76856;SDS011;66179;44.686;37.628;2023-01-28T04:48:26;8.23;;;3.00;;
76856;SDS011;66179;44.686;37.628;2023-01-28T04:51:21;8.65;;;3.50;;
76856;SDS011;66179;44.686;37.628;2023-01-28T04:54:10;9.90;;;3.92;;
76856;SDS011;66179;44.686;37.628;2023-01-28T04:56:37;8.68;;;3.03;;
76856;SDS011;66179;44.686;37.628;2023-01-28T04:59:03;10.53;;;3.17;;
76856;SDS011;66179;44.686;37.628;2023-01-28T05:01:31;9.45;;;2.50;;
76856;SDS011;66179;44.686;37.628;2023-01-28T05:03:58;8.52;;;2.80;;
76856;SDS011;66179;44.686;37.628;2023-01-28T05:06:31;9.32;;;2.88;;
76856;SDS011;66179;44.686;37.628;2023-01-28T05:09:08;10.18;;;3.08;;
76856;SDS011;66179;44.686;37.628;2023-01-28T05:11:35;8.67;;;3.30;;
76856;SDS011;66179;44.686;37.628;2023-01-28T05:14:04;10.18;;;3.20;;
76856;SDS011;66179;44.686;37.628;2023-01-28T05:16:43;9.43;;;3.10;;
76856;SDS011;66179;44.686;37.628;2023-01-28T05:19:11;9.30;;;2.92;;
76856;SDS011;66179;44.686;37.628;2023-01-28T05:21:42;8.23;;;2.72;;
76856;SDS011;66179;44.686;37.628;2023-01-28T05:24:28;10.57;;;2.87;;
76856;SDS011;66179;44.686;37.628;2023-01-28T05:26:55;11.32;;;3.05;;
76856;SDS011;66179;44.686;37.628;2023-01-28T05:29:21;9.20;;;3.05;;
76856;SDS011;66179;44.686;37.628;2023-01-28T05:31:48;10.07;;;3.05;;
76856;SDS011;66179;44.686;37.628;2023-01-28T05:34:15;7.90;;;2.80;;
76856;SDS011;66179;44.686;37.628;2023-01-28T05:36:42;10.27;;;3.30;;
76856;SDS011;66179;44.686;37.628;2023-01-28T05:39:44;9.52;;;3.33;;
76856;SDS011;66179;44.686;37.628;2023-01-28T05:42:11;9.88;;;3.30;;
76856;SDS011;66179;44.686;37.628;2023-01-28T05:44:43;13.85;;;3.30;;
76856;SDS011;66179;44.686;37.628;2023-01-28T05:47:22;8.95;;;3.15;;
76856;SDS011;66179;44.686;37.628;2023-01-28T05:49:59;9.20;;;3.37;;
76856;SDS011;66179;44.686;37.628;2023-01-28T05:52:58;9.27;;;3.20;;
76856;SDS011;66179;44.686;37.628;2023-01-28T05:55:30;10.55;;;3.30;;
76856;SDS011;66179;44.686;37.628;2023-01-28T05:57:57;10.35;;;3.20;;
76856;SDS011;66179;44.686;37.628;2023-01-28T06:00:25;9.65;;;3.33;;
76856;SDS011;66179;44.686;37.628;2023-01-28T06:02:52;9.87;;;3.00;;
76856;SDS011;66179;44.686;37.628;2023-01-28T06:05:19;8.30;;;3.42;;
76856;SDS011;66179;44.686;37.628;2023-01-28T06:07:46;10.18;;;3.60;;
76856;SDS011;66179;44.686;37.628;2023-01-28T06:10:14;11.65;;;3.50;;
76856;SDS011;66179;44.686;37.628;2023-01-28T06:12:43;8.15;;;2.92;;
76856;SDS011;66179;44.686;37.628;2023-01-28T06:15:35;10.23;;;3.50;;
76856;SDS011;66179;44.686;37.628;2023-01-28T06:18:22;7.97;;;3.20;;
76856;SDS011;66179;44.686;37.628;2023-01-28T06:20:50;11.35;;;3.20;;
76856;SDS011;66179;44.686;37.628;2023-01-28T06:23:16;9.65;;;3.13;;
76856;SDS011;66179;44.686;37.628;2023-01-28T06:25:43;8.27;;;3.00;;
76856;SDS011;66179;44.686;37.628;2023-01-28T06:28:12;9.43;;;3.00;;
76856;SDS011;66179;44.686;37.628;2023-01-28T06:30:38;9.30;;;3.22;;
76856;SDS011;66179;44.686;37.628;2023-01-28T06:33:05;11.85;;;2.90;;
76856;SDS011;66179;44.686;37.628;2023-01-28T06:35:32;13.23;;;3.20;;
76856;SDS011;66179;44.686;37.628;2023-01-28T06:37:58;6.90;;;2.72;;
76856;SDS011;66179;44.686;37.628;2023-01-28T06:40:25;10.87;;;3.20;;
76856;SDS011;66179;44.686;37.628;2023-01-28T06:42:51;10.45;;;3.30;;
76856;SDS011;66179;44.686;37.628;2023-01-28T06:45:18;15.25;;;3.25;;
76856;SDS011;66179;44.686;37.628;2023-01-28T06:47:44;14.63;;;2.90;;
76856;SDS011;66179;44.686;37.628;2023-01-28T06:50:11;10.52;;;3.30;;
76856;SDS011;66179;44.686;37.628;2023-01-28T06:52:38;15.23;;;3.67;;
76856;SDS011;66179;44.686;37.628;2023-01-28T06:55:05;10.35;;;3.05;;
76856;SDS011;66179;44.686;37.628;2023-01-28T06:57:32;11.20;;;3.65;;
76856;SDS011;66179;44.686;37.628;2023-01-28T06:59:58;13.63;;;3.30;;
76856;SDS011;66179;44.686;37.628;2023-01-28T07:02:25;9.00;;;2.90;;
76856;SDS011;66179;44.686;37.628;2023-01-28T07:04:51;7.30;;;2.83;;
76856;SDS011;66179;44.686;37.628;2023-01-28T07:07:18;10.35;;;3.00;;
76856;SDS011;66179;44.686;37.628;2023-01-28T07:09:44;11.65;;;3.28;;
76856;SDS011;66179;44.686;37.628;2023-01-28T07:12:11;10.93;;;3.30;;
76856;SDS011;66179;44.686;37.628;2023-01-28T07:14:37;11.07;;;3.00;;
76856;SDS011;66179;44.686;37.628;2023-01-28T07:17:04;11.47;;;3.23;;
76856;SDS011;66179;44.686;37.628;2023-01-28T07:19:30;8.65;;;3.30;;
76856;SDS011;66179;44.686;37.628;2023-01-28T07:21:57;8.23;;;2.92;;
76856;SDS011;66179;44.686;37.628;2023-01-28T07:24:25;13.45;;;3.38;;
76856;SDS011;66179;44.686;37.628;2023-01-28T07:26:52;12.60;;;3.03;;
76856;SDS011;66179;44.686;37.628;2023-01-28T07:29:18;13.57;;;3.60;;
76856;SDS011;66179;44.686;37.628;2023-01-28T07:31:45;8.52;;;2.80;;
76856;SDS011;66179;44.686;37.628;2023-01-28T07:34:12;8.35;;;2.97;;
76856;SDS011;66179;44.686;37.628;2023-01-28T07:36:38;10.90;;;3.08;;
76856;SDS011;66179;44.686;37.628;2023-01-28T07:39:05;11.70;;;2.88;;
76856;SDS011;66179;44.686;37.628;2023-01-28T07:41:34;15.10;;;3.90;;
76856;SDS011;66179;44.686;37.628;2023-01-28T07:44:05;13.88;;;3.30;;
76856;SDS011;66179;44.686;37.628;2023-01-28T07:46:31;14.52;;;3.10;;
76856;SDS011;66179;44.686;37.628;2023-01-28T07:48:58;12.60;;;3.25;;
76856;SDS011;66179;44.686;37.628;2023-01-28T07:51:24;14.02;;;2.95;;
76856;SDS011;66179;44.686;37.628;2023-01-28T07:53:51;11.13;;;3.17;;
76856;SDS011;66179;44.686;37.628;2023-01-28T07:56:17;12.15;;;3.13;;
76856;SDS011;66179;44.686;37.628;2023-01-28T07:58:44;10.25;;;3.10;;
76856;SDS011;66179;44.686;37.628;2023-01-28T08:01:10;10.60;;;2.95;;
76856;SDS011;66179;44.686;37.628;2023-01-28T08:03:37;15.13;;;3.05;;
76856;SDS011;66179;44.686;37.628;2023-01-28T08:06:04;11.63;;;2.70;;
76856;SDS011;66179;44.686;37.628;2023-01-28T08:08:30;12.75;;;3.33;;
76856;SDS011;66179;44.686;37.628;2023-01-28T08:10:57;11.48;;;2.88;;
76856;SDS011;66179;44.686;37.628;2023-01-28T08:13:23;10.85;;;2.90;;
76856;SDS011;66179;44.686;37.628;2023-01-28T08:15:53;8.52;;;2.60;;
76856;SDS011;66179;44.686;37.628;2023-01-28T08:18:20;14.13;;;2.87;;
76856;SDS011;66179;44.686;37.628;2023-01-28T08:20:47;63.53;;;3.75;;
76856;SDS011;66179;44.686;37.628;2023-01-28T08:23:14;13.00;;;2.55;;
76856;SDS011;66179;44.686;37.628;2023-01-28T08:25:42;13.82;;;2.47;;
76856;SDS011;66179;44.686;37.628;2023-01-28T08:28:09;7.40;;;2.90;;
76856;SDS011;66179;44.686;37.628;2023-01-28T08:30:36;12.93;;;2.30;;
76856;SDS011;66179;44.686;37.628;2023-01-28T08:33:04;13.43;;;2.88;;
76856;SDS011;66179;44.686;37.628;2023-01-28T08:35:32;12.48;;;2.70;;
76856;SDS011;66179;44.686;37.628;2023-01-28T08:37:59;7.68;;;2.30;;
76856;SDS011;66179;44.686;37.628;2023-01-28T08:40:26;20.35;;;3.13;;
76856;SDS011;66179;44.686;37.628;2023-01-28T08:42:54;17.67;;;2.93;;
76856;SDS011;66179;44.686;37.628;2023-01-28T08:45:21;8.07;;;2.45;;
76856;SDS011;66179;44.686;37.628;2023-01-28T08:47:54;11.35;;;3.25;;
76856;SDS011;66179;44.686;37.628;2023-01-28T08:50:23;7.97;;;2.42;;
76856;SDS011;66179;44.686;37.628;2023-01-28T08:53:01;10.77;;;2.58;;
76856;SDS011;66179;44.686;37.628;2023-01-28T08:55:29;11.43;;;2.73;;
76856;SDS011;66179;44.686;37.628;2023-01-28T08:57:56;11.43;;;2.90;;
76856;SDS011;66179;44.686;37.628;2023-01-28T09:00:26;10.45;;;2.47;;
76856;SDS011;66179;44.686;37.628;2023-01-28T09:02:53;10.15;;;2.72;;
76856;SDS011;66179;44.686;37.628;2023-01-28T09:05:20;14.13;;;3.58;;
76856;SDS011;66179;44.686;37.628;2023-01-28T09:07:47;21.83;;;6.77;;
76856;SDS011;66179;44.686;37.628;2023-01-28T09:10:14;15.52;;;4.50;;
76856;SDS011;66179;44.686;37.628;2023-01-28T09:12:45;13.10;;;3.22;;
76856;SDS011;66179;44.686;37.628;2023-01-28T09:15:11;10.50;;;3.38;;
76856;SDS011;66179;44.686;37.628;2023-01-28T09:17:38;15.50;;;4.60;;
76856;SDS011;66179;44.686;37.628;2023-01-28T09:20:05;15.07;;;4.53;;
76856;SDS011;66179;44.686;37.628;2023-01-28T09:22:33;13.85;;;3.75;;
76856;SDS011;66179;44.686;37.628;2023-01-28T09:24:59;12.65;;;3.30;;
76856;SDS011;66179;44.686;37.628;2023-01-28T09:27:26;14.80;;;3.50;;
76856;SDS011;66179;44.686;37.628;2023-01-28T09:29:52;15.43;;;5.10;;
76856;SDS011;66179;44.686;37.628;2023-01-28T09:32:19;18.00;;;5.20;;
76856;SDS011;66179;44.686;37.628;2023-01-28T09:34:45;18.38;;;5.90;;
76856;SDS011;66179;44.686;37.628;2023-01-28T09:37:11;16.58;;;5.78;;
76856;SDS011;66179;44.686;37.628;2023-01-28T09:39:39;16.13;;;5.35;;
76856;SDS011;66179;44.686;37.628;2023-01-28T09:45:11;14.30;;;3.40;;
76856;SDS011;66179;44.686;37.628;2023-01-28T09:47:43;12.52;;;4.15;;
76856;SDS011;66179;44.686;37.628;2023-01-28T09:55:52;17.35;;;3.90;;
76856;SDS011;66179;44.686;37.628;2023-01-28T09:58:21;12.87;;;3.60;;
76856;SDS011;66179;44.686;37.628;2023-01-28T10:01:05;10.57;;;3.92;;
76856;SDS011;66179;44.686;37.628;2023-01-28T10:09:18;12.77;;;3.17;;
76856;SDS011;66179;44.686;37.628;2023-01-28T10:25:51;21.00;;;5.17;;
76856;SDS011;66179;44.686;37.628;2023-01-28T10:28:26;23.17;;;6.22;;
76856;SDS011;66179;44.686;37.628;2023-01-28T10:30:54;23.88;;;6.38;;
76856;SDS011;66179;44.686;37.628;2023-01-28T10:35:56;21.98;;;6.20;;
76856;SDS011;66179;44.686;37.628;2023-01-28T10:38:24;21.37;;;5.67;;
76856;SDS011;66179;44.686;37.628;2023-01-28T10:40:51;20.25;;;6.63;;
76856;SDS011;66179;44.686;37.628;2023-01-28T10:43:23;25.73;;;6.57;;
76856;SDS011;66179;44.686;37.628;2023-01-28T10:45:58;23.67;;;6.30;;
76856;SDS011;66179;44.686;37.628;2023-01-28T10:48:43;18.45;;;5.88;;
76856;SDS011;66179;44.686;37.628;2023-01-28T10:51:37;22.00;;;6.73;;
76856;SDS011;66179;44.686;37.628;2023-01-28T10:54:22;19.42;;;6.40;;
76856;SDS011;66179;44.686;37.628;2023-01-28T10:56:54;22.90;;;7.10;;
76856;SDS011;66179;44.686;37.628;2023-01-28T10:59:30;24.33;;;6.75;;
76856;SDS011;66179;44.686;37.628;2023-01-28T11:02:00;18.90;;;6.32;;
76856;SDS011;66179;44.686;37.628;2023-01-28T11:04:31;20.30;;;7.63;;
76856;SDS011;66179;44.686;37.628;2023-01-28T11:07:15;19.70;;;6.40;;
76856;SDS011;66179;44.686;37.628;2023-01-28T11:09:45;22.50;;;6.38;;
76856;SDS011;66179;44.686;37.628;2023-01-28T11:12:26;21.05;;;7.15;;
76856;SDS011;66179;44.686;37.628;2023-01-28T11:14:55;23.73;;;8.00;;
76856;SDS011;66179;44.686;37.628;2023-01-28T11:17:27;26.23;;;8.33;;
76856;SDS011;66179;44.686;37.628;2023-01-28T11:20:18;27.08;;;7.85;;
76856;SDS011;66179;44.686;37.628;2023-01-28T11:22:47;24.20;;;8.65;;
76856;SDS011;66179;44.686;37.628;2023-01-28T11:25:18;25.42;;;8.00;;
76856;SDS011;66179;44.686;37.628;2023-01-28T11:27:52;18.30;;;6.90;;
76856;SDS011;66179;44.686;37.628;2023-01-28T11:30:27;18.43;;;7.23;;
76856;SDS011;66179;44.686;37.628;2023-01-28T11:38:33;24.02;;;8.75;;
76856;SDS011;66179;44.686;37.628;2023-01-28T11:40:59;23.77;;;7.43;;
76856;SDS011;66179;44.686;37.628;2023-01-28T11:43:27;23.73;;;8.50;;
76856;SDS011;66179;44.686;37.628;2023-01-28T11:48:40;20.58;;;8.15;;
76856;SDS011;66179;44.686;37.628;2023-01-28T11:51:36;20.27;;;7.53;;
76856;SDS011;66179;44.686;37.628;2023-01-28T12:00:21;20.08;;;7.80;;
76856;SDS011;66179;44.686;37.628;2023-01-28T12:06:19;17.77;;;7.35;;
76856;SDS011;66179;44.686;37.628;2023-01-28T12:11:35;15.90;;;7.30;;
76856;SDS011;66179;44.686;37.628;2023-01-28T12:20:39;15.50;;;7.13;;
76856;SDS011;66179;44.686;37.628;2023-01-28T12:26:52;17.27;;;7.50;;
76856;SDS011;66179;44.686;37.628;2023-01-28T12:37:38;18.35;;;8.05;;
76856;SDS011;66179;44.686;37.628;2023-01-28T12:40:28;17.57;;;8.20;;
76856;SDS011;66179;44.686;37.628;2023-01-28T12:46:00;20.60;;;8.27;;
76856;SDS011;66179;44.686;37.628;2023-01-28T12:48:39;18.30;;;8.30;;
76856;SDS011;66179;44.686;37.628;2023-01-28T12:51:44;19.73;;;8.90;;
76856;SDS011;66179;44.686;37.628;2023-01-28T12:54:24;20.10;;;8.67;;
76856;SDS011;66179;44.686;37.628;2023-01-28T12:57:03;21.63;;;9.55;;
76856;SDS011;66179;44.686;37.628;2023-01-28T12:59:38;20.73;;;9.80;;
76856;SDS011;66179;44.686;37.628;2023-01-28T13:04:58;21.65;;;9.90;;
76856;SDS011;66179;44.686;37.628;2023-01-28T13:10:14;19.65;;;8.80;;
76856;SDS011;66179;44.686;37.628;2023-01-28T13:12:52;18.45;;;8.95;;
76856;SDS011;66179;44.686;37.628;2023-01-28T13:15:20;21.02;;;9.63;;
76856;SDS011;66179;44.686;37.628;2023-01-28T13:17:54;18.45;;;8.45;;
76856;SDS011;66179;44.686;37.628;2023-01-28T13:20:35;18.17;;;8.27;;
76856;SDS011;66179;44.686;37.628;2023-01-28T13:23:05;27.60;;;9.75;;
76856;SDS011;66179;44.686;37.628;2023-01-28T13:25:48;19.45;;;8.40;;
76856;SDS011;66179;44.686;37.628;2023-01-28T13:31:02;18.23;;;7.32;;
76856;SDS011;66179;44.686;37.628;2023-01-28T13:33:37;18.37;;;7.30;;
76856;SDS011;66179;44.686;37.628;2023-01-28T13:38:34;13.98;;;7.13;;
76856;SDS011;66179;44.686;37.628;2023-01-28T13:41:01;16.83;;;7.25;;
76856;SDS011;66179;44.686;37.628;2023-01-28T13:45:58;14.80;;;7.23;;
76856;SDS011;66179;44.686;37.628;2023-01-28T13:50:59;13.88;;;6.80;;
76856;SDS011;66179;44.686;37.628;2023-01-28T13:53:33;16.23;;;6.75;;
76856;SDS011;66179;44.686;37.628;2023-01-28T13:56:21;16.40;;;7.70;;
76856;SDS011;66179;44.686;37.628;2023-01-28T14:10:24;17.55;;;7.10;;
76856;SDS011;66179;44.686;37.628;2023-01-28T14:15:39;14.00;;;7.18;;
76856;SDS011;66179;44.686;37.628;2023-01-28T14:20:52;19.17;;;7.43;;
76856;SDS011;66179;44.686;37.628;2023-01-28T14:23:21;19.30;;;7.07;;
76856;SDS011;66179;44.686;37.628;2023-01-28T14:31:02;16.85;;;7.20;;
76856;SDS011;66179;44.686;37.628;2023-01-28T14:33:50;26.95;;;8.63;;
76856;SDS011;66179;44.686;37.628;2023-01-28T14:36:17;22.58;;;8.07;;
76856;SDS011;66179;44.686;37.628;2023-01-28T14:38:44;19.93;;;7.20;;
76856;SDS011;66179;44.686;37.628;2023-01-28T14:41:22;21.13;;;6.60;;
76856;SDS011;66179;44.686;37.628;2023-01-28T14:43:54;21.38;;;7.43;;
76856;SDS011;66179;44.686;37.628;2023-01-28T14:51:39;15.30;;;5.53;;
76856;SDS011;66179;44.686;37.628;2023-01-28T14:54:36;14.98;;;5.10;;
76856;SDS011;66179;44.686;37.628;2023-01-28T14:57:36;17.02;;;5.93;;
76856;SDS011;66179;44.686;37.628;2023-01-28T15:00:19;15.30;;;5.38;;
76856;SDS011;66179;44.686;37.628;2023-01-28T15:02:57;19.73;;;5.57;;
76856;SDS011;66179;44.686;37.628;2023-01-28T15:05:25;14.83;;;4.27;;
76856;SDS011;66179;44.686;37.628;2023-01-28T15:07:54;14.93;;;4.53;;
76856;SDS011;66179;44.686;37.628;2023-01-28T15:10:28;20.25;;;4.97;;
76856;SDS011;66179;44.686;37.628;2023-01-28T15:12:59;16.48;;;4.80;;
76856;SDS011;66179;44.686;37.628;2023-01-28T15:15:33;13.73;;;4.40;;
76856;SDS011;66179;44.686;37.628;2023-01-28T15:18:05;17.03;;;4.90;;
76856;SDS011;66179;44.686;37.628;2023-01-28T15:20:42;20.10;;;4.75;;
76856;SDS011;66179;44.686;37.628;2023-01-28T15:23:11;18.65;;;5.25;;
76856;SDS011;66179;44.686;37.628;2023-01-28T15:25:40;18.08;;;5.18;;
76856;SDS011;66179;44.686;37.628;2023-01-28T15:28:11;22.20;;;5.80;;
76856;SDS011;66179;44.686;37.628;2023-01-28T15:30:45;20.30;;;6.23;;
76856;SDS011;66179;44.686;37.628;2023-01-28T15:33:13;19.35;;;6.95;;
76856;SDS011;66179;44.686;37.628;2023-01-28T15:35:48;26.50;;;6.55;;
76856;SDS011;66179;44.686;37.628;2023-01-28T15:38:16;20.88;;;7.28;;
76856;SDS011;66179;44.686;37.628;2023-01-28T15:40:43;22.05;;;7.57;;
76856;SDS011;66179;44.686;37.628;2023-01-28T15:43:14;21.50;;;7.67;;
76856;SDS011;66179;44.686;37.628;2023-01-28T15:45:45;24.08;;;7.78;;
76856;SDS011;66179;44.686;37.628;2023-01-28T15:48:13;26.48;;;8.10;;
76856;SDS011;66179;44.686;37.628;2023-01-28T15:50:41;24.05;;;8.48;;
76856;SDS011;66179;44.686;37.628;2023-01-28T15:53:12;20.05;;;7.60;;
76856;SDS011;66179;44.686;37.628;2023-01-28T15:55:42;19.73;;;7.47;;
76856;SDS011;66179;44.686;37.628;2023-01-28T16:00:51;20.92;;;7.90;;
76856;SDS011;66179;44.686;37.628;2023-01-28T16:03:28;24.77;;;8.20;;
76856;SDS011;66179;44.686;37.628;2023-01-28T16:05:56;21.52;;;8.05;;
76856;SDS011;66179;44.686;37.628;2023-01-28T16:08:28;24.57;;;7.53;;
76856;SDS011;66179;44.686;37.628;2023-01-28T16:11:04;23.40;;;7.97;;
76856;SDS011;66179;44.686;37.628;2023-01-28T16:13:32;24.30;;;8.20;;
76856;SDS011;66179;44.686;37.628;2023-01-28T16:16:00;24.83;;;7.55;;
76856;SDS011;66179;44.686;37.628;2023-01-28T16:21:18;24.33;;;7.93;;
76856;SDS011;66179;44.686;37.628;2023-01-28T16:23:51;21.33;;;7.90;;
76856;SDS011;66179;44.686;37.628;2023-01-28T16:26:25;22.98;;;8.18;;
76856;SDS011;66179;44.686;37.628;2023-01-28T16:28:53;22.52;;;7.60;;
76856;SDS011;66179;44.686;37.628;2023-01-28T16:31:19;22.90;;;7.80;;
76856;SDS011;66179;44.686;37.628;2023-01-28T16:33:46;20.73;;;7.60;;
76856;SDS011;66179;44.686;37.628;2023-01-28T16:36:16;19.85;;;8.00;;
76856;SDS011;66179;44.686;37.628;2023-01-28T16:38:46;21.65;;;8.20;;
76856;SDS011;66179;44.686;37.628;2023-01-28T16:41:13;21.95;;;8.05;;
76856;SDS011;66179;44.686;37.628;2023-01-28T16:43:47;25.77;;;8.30;;
76856;SDS011;66179;44.686;37.628;2023-01-28T16:46:14;21.47;;;7.97;;
76856;SDS011;66179;44.686;37.628;2023-01-28T16:48:40;22.50;;;8.02;;
76856;SDS011;66179;44.686;37.628;2023-01-28T16:51:09;18.17;;;7.40;;
76856;SDS011;66179;44.686;37.628;2023-01-28T16:53:43;24.52;;;9.38;;
76856;SDS011;66179;44.686;37.628;2023-01-28T16:56:13;19.75;;;7.95;;
76856;SDS011;66179;44.686;37.628;2023-01-28T16:58:41;24.00;;;8.20;;
76856;SDS011;66179;44.686;37.628;2023-01-28T17:01:07;22.30;;;8.60;;
76856;SDS011;66179;44.686;37.628;2023-01-28T17:03:34;22.13;;;8.20;;
76856;SDS011;66179;44.686;37.628;2023-01-28T17:06:01;24.52;;;7.93;;
76856;SDS011;66179;44.686;37.628;2023-01-28T17:08:27;24.27;;;8.02;;